Time;durP1;ratioP1;P1;durP2;ratioP2;P2;SDS_P1;SDS_P2;PMS_P1;PMS_P2;Temp;Humidity;BMP_temperature;BMP_pressure;BME280_temperature;BME280_humidity;BME280_pressure;Samples;Min_cycle;Max_cycle;Signal;HPM_P1;HPM_P2
2023/11/30 00:01:18;;;;;;;21.75;10.18;;;1.20;99.90;;;-0.40;100.00;99601.09;4966600;28;20080;-81
2023/11/30 00:03:44;;;;;;;16.50;8.60;;;1.20;99.90;;;-0.55;100.00;99606.56;4975649;28;20021;-82
2023/11/30 00:06:10;;;;;;;16.27;7.05;;;1.20;99.90;;;-0.60;100.00;99605.78;4972495;28;20034;-81
2023/11/30 00:08:42;;;;;;;9.15;5.60;;;1.10;99.90;;;-0.76;100.00;99603.50;4959062;28;20039;-82
2023/11/30 00:11:08;;;;;;;11.13;6.22;;;1.10;99.90;;;-0.78;100.00;99610.41;4975480;28;20057;-82
2023/11/30 00:13:34;;;;;;;7.78;4.55;;;1.00;99.90;;;-0.89;100.00;99607.19;4974271;28;20707;-83
2023/11/30 00:16:00;;;;;;;9.10;5.30;;;1.10;99.90;;;-0.78;100.00;99607.84;4942093;28;20145;-81
2023/11/30 00:18:25;;;;;;;10.80;5.72;;;1.00;99.90;;;-0.79;100.00;99611.31;4967630;28;20131;-81
2023/11/30 00:20:56;;;;;;;8.65;5.35;;;1.00;99.90;;;-0.76;100.00;99613.84;4977018;28;20029;-83
2023/11/30 00:23:22;;;;;;;10.68;5.35;;;1.00;99.90;;;-0.77;100.00;99614.72;4943287;28;20037;-83
2023/11/30 00:25:48;;;;;;;9.00;5.97;;;1.00;99.90;;;-0.72;100.00;99624.97;4963332;28;20030;-81
2023/11/30 00:28:14;;;;;;;12.27;5.28;;;;;;;-0.75;100.00;99630.22;4965976;28;20056;-81
2023/11/30 00:30:40;;;;;;;11.15;6.57;;;1.00;99.90;;;-0.67;100.00;99629.19;4970065;28;20037;-82
2023/11/30 00:33:06;;;;;;;13.55;6.75;;;1.10;99.90;;;-0.60;100.00;99636.81;4974864;28;20033;-81
2023/11/30 00:35:41;;;;;;;21.45;7.93;;;1.10;99.90;;;-0.62;100.00;99635.13;4979177;28;20048;-81
2023/11/30 00:38:07;;;;;;;17.65;9.50;;;1.10;99.90;;;-0.56;100.00;99625.53;4976325;28;20084;-81
2023/11/30 00:40:33;;;;;;;13.70;7.63;;;1.10;99.90;;;-0.71;100.00;99629.28;5017154;28;20037;-84
2023/11/30 00:43:01;;;;;;;13.13;7.57;;;1.10;99.90;;;-0.70;100.00;99630.97;5033397;28;20128;-81
2023/11/30 00:45:47;;;;;;;16.75;8.45;;;1.00;99.90;;;-0.74;100.00;99640.50;4948458;28;20045;-80
2023/11/30 00:48:13;;;;;;;18.90;8.43;;;1.00;99.90;;;-0.70;100.00;99641.31;4828170;29;20085;-84
2023/11/30 00:50:39;;;;;;;14.90;8.48;;;1.00;99.90;;;-0.73;100.00;99646.56;4870350;29;20055;-81
2023/11/30 00:53:04;;;;;;;15.25;7.72;;;1.00;99.90;;;-0.69;100.00;99651.63;4877016;29;20044;-83
2023/11/30 00:55:30;;;;;;;16.95;8.98;;;1.00;99.90;;;-0.68;100.00;99655.06;4840175;29;20154;-81
2023/11/30 00:58:16;;;;;;;15.02;8.10;;;1.00;99.90;;;-0.66;100.00;99668.81;4859829;29;20123;-82
2023/11/30 01:00:44;;;;;;;15.45;7.60;;;1.00;99.90;;;-0.69;100.00;99674.03;4810363;29;20423;-83
2023/11/30 01:03:10;;;;;;;15.43;7.95;;;1.00;99.90;;;-0.73;100.00;99669.81;4790397;29;20547;-82
2023/11/30 01:05:36;;;;;;;16.52;8.18;;;0.90;99.90;;;-0.76;100.00;99678.44;4802858;29;20037;-81
2023/11/30 01:08:04;;;;;;;20.38;8.18;;;0.90;99.90;;;-0.77;100.00;99681.09;4798880;29;20041;-82
2023/11/30 01:10:37;;;;;;;15.25;8.48;;;0.90;99.90;;;-0.81;100.00;99680.28;4823265;29;20084;-81
2023/11/30 01:13:03;;;;;;;22.05;9.73;;;0.90;99.90;;;-0.84;100.00;99677.75;4789581;29;20043;-82
2023/11/30 01:15:29;;;;;;;19.65;9.32;;;0.80;99.90;;;-0.83;100.00;99689.78;4809622;29;20430;-81
2023/11/30 01:18:00;;;;;;;15.20;8.52;;;0.80;99.90;;;-0.91;100.00;99679.56;4821818;29;20069;-83
2023/11/30 01:20:26;;;;;;;21.83;9.70;;;0.80;99.90;;;-0.95;100.00;99683.09;4810286;29;20087;-85
2023/11/30 01:22:51;;;;;;;17.98;8.43;;;0.70;99.90;;;-0.99;100.00;99680.56;4798769;29;20264;-84
2023/11/30 01:25:17;;;;;;;23.40;9.68;;;0.70;99.90;;;-1.00;100.00;99686.63;4841731;28;20275;-83
2023/11/30 01:27:43;;;;;;;17.02;9.48;;;0.70;99.90;;;-1.04;100.00;99689.28;4874778;28;20051;-83
2023/11/30 01:30:10;;;;;;;17.05;9.80;;;0.70;99.90;;;-1.07;100.00;99694.47;4887890;28;20087;-83
2023/11/30 01:32:45;;;;;;;19.23;9.32;;;0.60;99.90;;;-1.10;100.00;99691.94;4935075;28;20586;-83
2023/11/30 01:35:11;;;;;;;16.45;9.10;;;0.60;99.90;;;-1.13;100.00;99698.88;4868153;29;20054;-83
2023/11/30 01:37:43;;;;;;;18.20;9.95;;;0.60;99.90;;;-1.19;100.00;99694.66;4907943;28;20029;-82
2023/11/30 01:40:09;;;;;;;17.92;9.77;;;0.50;99.90;;;-1.20;100.00;99694.69;4977311;28;20033;-83
2023/11/30 01:42:36;;;;;;;19.08;10.18;;;0.50;99.90;;;-1.27;100.00;99701.69;4941441;28;20451;-82
2023/11/30 01:45:03;;;;;;;16.52;9.15;;;0.50;99.90;;;-1.34;99.55;99692.31;4948836;28;20497;-82
2023/11/30 01:47:38;;;;;;;18.75;9.85;;;0.40;99.90;;;-1.45;98.70;99695.91;4966223;28;20044;-84
2023/11/30 01:50:04;;;;;;;18.73;9.55;;;0.30;99.90;;;-1.55;98.52;99688.31;4992644;28;20033;-82
2023/11/30 01:52:31;;;;;;;17.92;8.88;;;0.20;99.90;;;-1.65;98.06;99691.00;4972145;28;20065;-81
2023/11/30 01:55:07;;;;;;;19.83;9.85;;;0.10;99.90;;;-1.73;97.82;99691.97;4943485;28;20115;-82
2023/11/30 01:57:34;;;;;;;21.95;10.05;;;0.00;99.90;;;-1.81;97.36;99686.06;4971313;28;20041;-84
2023/11/30 02:00:00;;;;;;;18.83;9.45;;;0.60;99.90;;;-1.88;97.29;99695.59;4942955;28;20053;-81
2023/11/30 02:02:36;;;;;;;19.52;10.00;;;-0.20;99.90;;;-1.99;96.84;99695.72;4956116;28;20040;-82
2023/11/30 02:05:02;;;;;;;18.88;9.85;;;-0.30;99.90;;;-2.10;96.49;99698.44;4947710;28;20063;-84
2023/11/30 02:07:27;;;;;;;19.25;10.20;;;-0.30;99.90;;;-2.21;96.47;99696.84;4955340;28;20030;-81
2023/11/30 02:09:54;;;;;;;21.80;10.20;;;;;;;-2.32;96.16;99692.66;4956196;28;20412;-82
2023/11/30 02:12:28;;;;;;;25.23;11.18;;;-0.50;99.90;;;-2.44;96.31;99707.41;4975458;28;20043;-81
2023/11/30 02:14:59;;;;;;;23.50;10.18;;;-0.70;99.90;;;-2.56;95.91;99692.94;4922032;28;20037;-83
2023/11/30 02:17:28;;;;;;;23.25;11.90;;;-0.80;99.90;;;-2.72;95.96;99698.22;4958459;28;20042;-82
2023/11/30 02:19:54;;;;;;;22.45;10.57;;;-0.90;99.90;;;-2.82;96.16;99691.44;4956484;28;20042;-83
2023/11/30 02:22:20;;;;;;;24.55;10.70;;;-1.00;99.90;;;-2.90;96.17;99688.06;4972154;28;20044;-81
2023/11/30 02:24:45;;;;;;;22.00;10.85;;;-1.00;99.90;;;-2.94;96.40;99689.84;4979557;28;20167;-81
2023/11/30 02:27:11;;;;;;;24.85;10.95;;;-1.10;99.90;;;-3.00;96.80;99692.47;4978744;28;20092;-84
2023/11/30 02:29:38;;;;;;;22.85;10.38;;;-1.20;99.90;;;-3.06;96.80;99694.22;4966368;28;20509;-82
2023/11/30 02:32:09;;;;;;;24.02;11.82;;;;;;;-3.15;97.10;99688.28;4951637;28;20032;-83
2023/11/30 02:34:35;;;;;;;25.52;11.23;;;-1.30;99.90;;;-3.21;96.89;99693.47;4982265;28;20040;-81
2023/11/30 02:37:01;;;;;;;22.65;10.32;;;-1.40;99.90;;;-3.28;97.03;99691.81;4975462;28;20425;-83
2023/11/30 02:39:27;;;;;;;21.33;10.98;;;-1.40;99.90;;;-3.33;97.59;99694.38;4969565;28;20049;-82
2023/11/30 02:41:53;;;;;;;27.70;11.77;;;-1.50;99.90;;;-3.37;97.58;99694.41;4984261;28;20044;-82
2023/11/30 02:44:26;;;;;;;28.75;11.52;;;-1.50;99.90;;;-3.43;97.73;99692.75;4963296;28;20029;-83
2023/11/30 02:46:52;;;;;;;26.55;12.00;;;-1.60;99.90;;;-3.48;97.70;99696.22;4963807;28;20033;-82
2023/11/30 02:49:18;;;;;;;24.23;10.32;;;-1.60;99.90;;;-3.53;98.28;99699.66;4951536;28;20156;-82
2023/11/30 02:51:44;;;;;;;24.88;10.88;;;-1.70;99.90;;;-3.51;98.74;99703.09;4924537;28;20484;-83
2023/11/30 02:54:18;;;;;;;26.08;11.68;;;-1.70;99.90;;;-3.55;99.27;99698.81;4966764;28;20037;-81
2023/11/30 02:56:44;;;;;;;23.95;10.73;;;;;;;-3.57;99.63;99707.41;4966736;28;20470;-83
2023/11/30 02:59:11;;;;;;;25.27;11.80;;;;;;;-3.57;100.00;99703.13;5013271;28;20029;-81
2023/11/30 03:02:01;;;;;;;29.65;11.23;;;-1.70;99.90;;;-3.54;100.00;99699.69;4984045;28;20037;-81
2023/11/30 03:04:26;;;;;;;25.52;11.32;;;-1.70;99.90;;;-3.56;100.00;99707.41;4979500;28;20099;-82
2023/11/30 03:06:52;;;;;;;27.67;11.55;;;;;;;-3.56;100.00;99707.41;4960368;28;20030;-82
2023/11/30 03:09:18;;;;;;;29.65;12.23;;;-1.80;99.90;;;-3.56;100.00;99706.56;4968342;28;20049;-82
2023/11/30 03:11:44;;;;;;;26.30;11.50;;;-1.70;99.90;;;-3.55;100.00;99709.09;4995727;28;20036;-83
2023/11/30 03:14:10;;;;;;;25.25;12.15;;;-1.70;99.90;;;-3.53;100.00;99720.25;4956344;28;20083;-81
2023/11/30 03:16:42;;;;;;;28.58;12.52;;;;;;;-3.55;100.00;99718.56;4938411;28;20029;-84
2023/11/30 03:19:08;;;;;;;30.35;13.07;;;-1.70;99.90;;;-3.55;100.00;99713.41;4929034;28;20041;-83
2023/11/30 03:21:34;;;;;;;28.05;13.05;;;-1.70;99.90;;;-3.55;100.00;99708.25;4911283;28;20045;-81
2023/11/30 03:24:00;;;;;;;29.70;13.82;;;-1.70;99.90;;;-3.56;100.00;99716.84;4942535;28;20025;-81
2023/11/30 03:26:26;;;;;;;26.30;11.70;;;-1.70;99.90;;;-3.58;100.00;99716.00;4925451;28;20382;-81
2023/11/30 03:28:58;;;;;;;29.33;12.63;;;-1.70;99.90;;;-3.59;100.00;99720.28;4967981;28;20083;-81
2023/11/30 03:31:26;;;;;;;30.20;12.73;;;-1.80;99.90;;;-3.60;100.00;99715.16;4954154;28;20038;-84
2023/11/30 03:33:52;;;;;;;27.63;12.88;;;-1.80;99.90;;;-3.65;100.00;99717.75;5003982;28;20486;-82
2023/11/30 03:36:18;;;;;;;28.63;12.32;;;-1.80;99.90;;;-3.69;100.00;99715.19;5012273;28;20053;-83
2023/11/30 03:38:43;;;;;;;31.33;13.18;;;-1.80;99.90;;;-3.70;100.00;99719.47;4946498;28;20053;-83
2023/11/30 03:41:13;;;;;;;30.58;13.10;;;-1.90;99.90;;;-3.72;100.00;99716.91;4976355;28;20029;-81
2023/11/30 03:43:39;;;;;;;32.30;14.02;;;-1.90;99.90;;;-3.80;100.00;99715.22;4950143;28;20034;-81
2023/11/30 03:46:05;;;;;;;33.97;13.13;;;;;;;-3.79;100.00;99715.25;4917256;28;20509;-82
2023/11/30 03:48:31;;;;;;;37.65;13.75;;;-1.90;99.90;;;-3.79;100.00;99727.25;4953929;28;20060;-81
2023/11/30 03:50:57;;;;;;;33.40;14.15;;;;;;;-3.81;100.00;99727.25;4922348;28;20040;-82
2023/11/30 03:53:22;;;;;;;30.20;13.23;;;-2.00;99.90;;;-3.85;100.00;99725.53;4973587;28;20040;-82
2023/11/30 03:55:54;;;;;;;28.95;12.80;;;-2.00;99.90;;;-3.86;100.00;99723.84;4942718;28;20124;-83
2023/11/30 03:58:22;;;;;;;30.48;13.32;;;;;;;-3.83;100.00;99722.97;4923019;28;20538;-81
2023/11/30 04:00:49;;;;;;;31.95;14.43;;;-2.00;99.90;;;-3.80;100.00;99730.66;4921500;28;20418;-83
2023/11/30 04:03:38;;;;;;;34.60;14.30;;;-2.00;99.90;;;-3.81;100.00;99726.41;4958174;28;20033;-81
2023/11/30 04:06:04;;;;;;;28.48;13.30;;;-2.00;99.90;;;-3.82;100.00;99730.69;4949101;28;20088;-81
2023/11/30 04:08:30;;;;;;;37.08;13.55;;;-2.00;99.90;;;-3.80;100.00;99728.97;4943782;28;20029;-80
2023/11/30 04:10:56;;;;;;;33.67;14.07;;;-2.00;99.90;;;-3.80;100.00;99728.09;4925853;28;20048;-83
2023/11/30 04:13:22;;;;;;;31.70;13.52;;;-2.00;99.90;;;-3.82;100.00;99730.69;4952162;28;20049;-82
2023/11/30 04:15:56;;;;;;;35.53;14.35;;;;;;;-3.83;100.00;99730.69;4935891;28;20048;-81
2023/11/30 04:18:24;;;;;;;38.75;17.15;;;-2.00;99.90;;;-3.86;100.00;99723.00;4922990;28;20049;-84
2023/11/30 04:20:57;;;;;;;35.10;14.95;;;-2.00;99.90;;;-3.87;100.00;99726.41;4924205;28;20045;-81
2023/11/30 04:23:25;;;;;;;33.53;14.50;;;;;;;-3.87;100.00;99731.56;4935230;28;20048;-83
2023/11/30 04:25:51;;;;;;;39.10;15.70;;;-1.10;99.90;;;-3.89;100.00;99733.28;4959812;28;20048;-84
2023/11/30 04:28:17;;;;;;;37.35;15.25;;;-2.10;99.90;;;-3.93;100.00;99729.84;4952350;28;20124;-82
2023/11/30 04:30:53;;;;;;;39.95;16.05;;;-2.10;99.90;;;-3.97;100.00;99726.47;4971599;28;20105;-82
2023/11/30 04:33:19;;;;;;;40.15;16.90;;;-2.10;99.90;;;-3.96;100.00;99733.31;4914976;28;20537;-81
2023/11/30 04:35:46;;;;;;;40.05;16.58;;;;;;;-3.99;100.00;99730.75;4893653;28;20109;-84
2023/11/30 04:38:24;;;;;;;39.70;15.82;;;;;;;-3.99;100.00;99732.47;4914921;28;20042;-82
2023/11/30 04:40:50;;;;;;;45.50;18.08;;;-2.10;99.90;;;-4.04;100.00;99727.34;4884592;28;20039;-81
2023/11/30 04:43:24;;;;;;;43.45;15.88;;;-2.20;99.90;;;-4.07;100.00;99723.94;4890799;28;20045;-81
2023/11/30 04:45:50;;;;;;;34.97;14.70;;;-2.20;99.90;;;-4.14;100.00;99716.22;4889401;28;20043;-81
2023/11/30 04:48:16;;;;;;;42.70;16.75;;;-2.30;99.90;;;-4.14;100.00;99723.09;4878054;28;20059;-81
2023/11/30 04:50:42;;;;;;;42.38;15.43;;;-2.30;99.90;;;-4.16;100.00;99714.53;4914727;28;20050;-82
2023/11/30 04:53:17;;;;;;;35.92;15.43;;;;;;;-4.23;100.00;99721.41;4891572;28;20122;-82
2023/11/30 04:55:43;;;;;;;41.67;15.63;;;-2.40;99.90;;;-4.35;99.79;99727.41;4909077;28;20150;-81
2023/11/30 04:58:09;;;;;;;39.92;14.50;;;-2.50;99.90;;;-4.46;99.98;99716.31;4988548;23;20050;-81
2023/11/30 05:00:34;;;;;;;42.80;14.73;;;-2.60;99.90;;;-4.51;99.59;99712.91;5025980;28;20069;-81
2023/11/30 05:03:06;;;;;;;44.28;15.15;;;-2.60;99.90;;;-4.56;99.57;99709.47;4982338;28;20493;-81
2023/11/30 05:05:34;;;;;;;49.85;17.48;;;-2.70;99.90;;;-4.60;100.00;99723.16;5013174;28;20473;-82
2023/11/30 05:08:03;;;;;;;39.50;15.57;;;-2.70;99.90;;;-4.62;100.00;99719.75;5021643;28;20032;-81
2023/11/30 05:10:37;;;;;;;37.15;14.57;;;-2.70;99.90;;;-4.68;99.89;99715.47;4950906;28;20485;-82
2023/11/30 05:13:06;;;;;;;47.47;14.83;;;-2.80;99.90;;;-4.70;100.00;99711.22;4974839;28;20041;-82
2023/11/30 05:15:39;;;;;;;37.40;14.88;;;-2.80;99.90;;;-4.68;100.00;99724.91;4973230;28;20290;-83
2023/11/30 05:18:08;;;;;;;44.55;14.70;;;-2.80;99.90;;;-4.74;100.00;99718.91;5004762;28;20084;-82
2023/11/30 05:20:44;;;;;;;36.60;14.75;;;-2.80;99.90;;;-4.72;100.00;99720.63;4958148;28;20060;-82
2023/11/30 05:23:10;;;;;;;;;;;-2.80;99.90;;;-4.79;100.00;99710.34;5000599;28;20041;-82
2023/11/30 05:25:35;;;;;;;34.67;14.80;;;-2.90;99.90;;;-4.86;100.00;99718.03;5023299;28;20820;-82
2023/11/30 05:28:03;;;;;;;39.60;15.35;;;-3.00;99.90;;;-4.90;100.00;99719.78;5004103;28;20641;-83
2023/11/30 05:30:35;;;;;;;40.30;15.48;;;-3.00;99.90;;;-4.90;100.00;99726.59;4960469;28;20040;-82
2023/11/30 05:33:00;;;;;;;44.28;15.15;;;-3.00;99.90;;;-4.93;100.00;99721.47;4988530;28;20079;-82
2023/11/30 05:35:26;;;;;;;41.90;15.88;;;-3.00;99.90;;;-4.97;100.00;99718.94;4931354;28;20220;-81
2023/11/30 05:37:52;;;;;;;41.15;16.02;;;-3.00;99.90;;;-4.96;100.00;99717.22;4939786;28;20573;-83
2023/11/30 05:40:19;;;;;;;42.75;16.42;;;-3.10;99.90;;;-4.97;100.00;99715.47;4953815;28;20714;-81
2023/11/30 05:42:54;;;;;;;48.40;16.17;;;-3.00;99.90;;;-4.91;100.00;99722.34;4953284;28;20068;-81
2023/11/30 05:45:20;;;;;;;;;;;-3.00;99.90;;;-4.97;100.00;99724.06;4924205;28;20037;-82
2023/11/30 05:48:01;;;;;;;34.03;13.02;;;-3.10;99.90;;;-4.99;100.00;99719.75;4916053;28;19944;-81
2023/11/30 05:50:35;;;;;;;35.08;14.10;;;-3.10;99.90;;;-5.01;100.00;99735.19;4949863;28;20125;-81
2023/11/30 05:53:05;;;;;;;37.03;14.57;;;-3.10;99.90;;;-5.02;100.00;99727.47;4944827;28;20047;-82
2023/11/30 05:55:39;;;;;;;35.35;13.95;;;-3.10;99.90;;;-5.05;100.00;99724.91;4943414;28;20038;-83
2023/11/30 05:58:05;;;;;;;40.20;14.23;;;-3.10;99.90;;;-5.08;100.00;99724.91;4945296;28;20125;-81
2023/11/30 06:00:31;;;;;;;39.47;14.65;;;-3.20;99.90;;;-5.09;100.00;99725.75;4961812;28;20056;-84
2023/11/30 06:02:57;;;;;;;32.72;14.02;;;-3.20;99.90;;;-5.09;100.00;99736.88;4931477;28;20434;-81
2023/11/30 06:05:28;;;;;;;39.50;14.38;;;-3.20;99.90;;;-5.11;100.00;99737.75;4978958;28;20481;-81
2023/11/30 06:07:54;;;;;;;34.95;13.88;;;-3.20;99.90;;;-5.06;100.00;99741.16;4960196;28;20036;-82
2023/11/30 06:10:21;;;;;;;36.67;14.60;;;-3.20;99.90;;;-5.06;100.00;99736.03;4963673;28;20040;-82
2023/11/30 06:12:47;;;;;;;33.45;13.23;;;-3.20;99.90;;;-5.05;100.00;99740.31;5007776;28;20560;-81
2023/11/30 06:18:18;;;;;;;33.72;12.95;;;-3.10;99.90;;;-5.01;100.00;99752.28;4954151;28;20033;-81
2023/11/30 06:20:46;;;;;;;32.33;13.80;;;-3.10;99.90;;;-4.98;100.00;99773.69;4960016;28;20068;-83
2023/11/30 06:23:12;;;;;;;37.60;14.50;;;-3.10;99.90;;;-4.95;100.00;99766.00;5045764;28;20093;-83
2023/11/30 06:25:47;;;;;;;36.47;15.13;;;-3.10;99.90;;;-4.90;100.00;99776.28;4989195;28;20033;-84
2023/11/30 06:28:16;;;;;;;36.50;14.75;;;-3.00;99.90;;;-4.87;100.00;99777.97;4980668;28;20390;-85
2023/11/30 06:30:42;;;;;;;35.03;13.60;;;-3.00;99.90;;;-4.83;100.00;99782.28;4961866;28;20503;-84
2023/11/30 06:33:16;;;;;;;36.25;15.10;;;-2.90;99.90;;;-4.74;100.00;99782.25;4921256;28;20118;-81
2023/11/30 06:35:42;;;;;;;33.67;14.20;;;-2.90;99.90;;;-4.72;100.00;99782.28;4898861;28;20089;-81
2023/11/30 06:38:08;;;;;;;30.67;13.93;;;-2.80;99.90;;;-4.66;100.00;99779.72;4970212;28;20117;-81
2023/11/30 06:40:34;;;;;;;40.92;15.80;;;-2.80;99.90;;;-4.60;100.00;99800.25;4975104;28;20040;-83
2023/11/30 06:43:10;;;;;;;35.83;14.00;;;-2.80;99.90;;;-4.57;100.00;99793.41;4995914;28;20032;-82
2023/11/30 06:45:36;;;;;;;39.72;14.88;;;-2.80;99.90;;;-4.57;100.00;99800.25;4994626;28;20029;-82
2023/11/30 06:48:02;;;;;;;30.83;14.35;;;-2.70;99.90;;;-4.55;100.00;99801.13;5009508;28;20064;-81
2023/11/30 06:50:36;;;;;;;31.20;12.85;;;-2.70;99.90;;;-4.52;100.00;99808.81;5016902;28;20108;-81
2023/11/30 06:53:02;;;;;;;32.13;11.75;;;-2.70;99.90;;;-4.53;100.00;99802.81;5005570;28;20448;-82
2023/11/30 06:55:28;;;;;;;32.22;11.90;;;-2.70;99.90;;;-4.52;100.00;99806.25;4999222;28;20112;-83
2023/11/30 06:57:54;;;;;;;27.58;12.15;;;-2.60;99.90;;;-4.48;100.00;99807.09;4982773;28;20092;-83
2023/11/30 07:00:28;;;;;;;24.42;11.15;;;-2.60;99.90;;;-4.41;100.00;99812.22;4969723;28;20456;-81
2023/11/30 07:02:54;;;;;;;30.48;11.63;;;-2.60;99.90;;;-4.35;100.00;99817.38;4980925;28;20040;-83
2023/11/30 07:05:29;;;;;;;16.98;8.55;;;-2.50;99.90;;;-4.33;100.00;99819.94;5015684;28;20034;-82
2023/11/30 07:07:55;;;;;;;19.58;9.55;;;;;;;-4.27;100.00;99825.09;4965224;28;20489;-82
2023/11/30 07:10:21;;;;;;;30.02;12.20;;;-2.40;99.90;;;-4.22;100.00;99827.66;4999994;28;20531;-84
2023/11/30 07:12:47;;;;;;;23.55;10.80;;;-2.40;99.90;;;-4.20;100.00;99829.34;4943952;28;20067;-82
2023/11/30 07:15:13;;;;;;;26.02;10.88;;;-2.40;99.90;;;-4.18;100.00;99834.50;4988536;28;20061;-83
2023/11/30 07:17:46;;;;;;;31.25;11.65;;;-2.30;99.90;;;-4.16;100.00;99828.50;4990880;28;20488;-82
2023/11/30 07:20:12;;;;;;;26.98;12.45;;;-2.30;99.90;;;-4.13;100.00;99833.63;4967603;28;20041;-82
2023/11/30 07:22:37;;;;;;;27.45;12.32;;;-2.30;99.90;;;-4.10;100.00;99837.94;4972445;28;20530;-81
2023/11/30 07:25:04;;;;;;;29.05;13.02;;;-2.30;99.90;;;-4.07;100.00;99847.34;5001631;28;20075;-83
2023/11/30 07:27:30;;;;;;;31.02;13.13;;;-2.30;99.90;;;-4.06;100.00;99844.78;4972894;28;20059;-82
2023/11/30 07:30:07;;;;;;;28.60;12.75;;;-2.10;99.90;;;-4.04;100.00;99852.47;4991782;28;20067;-82
2023/11/30 07:32:33;;;;;;;27.25;12.48;;;-2.20;99.90;;;-4.02;100.00;99845.63;5006827;28;20033;-84
2023/11/30 07:35:06;;;;;;;29.73;12.48;;;-2.20;99.90;;;-4.05;100.00;99854.19;4956033;28;21073;-81
2023/11/30 07:37:34;;;;;;;26.85;12.52;;;-2.30;99.90;;;-4.05;100.00;99856.75;4968529;28;20047;-84
2023/11/30 07:40:00;;;;;;;25.92;12.13;;;-2.20;99.90;;;-4.07;100.00;99858.47;4959536;28;20049;-84
2023/11/30 07:42:26;;;;;;;27.15;12.07;;;-2.20;99.90;;;-4.07;100.00;99861.06;4965647;28;20494;-81
2023/11/30 07:44:56;;;;;;;29.23;12.55;;;-2.20;99.90;;;-4.06;100.00;99869.63;4962777;28;20691;-84
2023/11/30 07:47:22;;;;;;;27.02;12.60;;;-2.30;99.90;;;-4.09;100.00;99870.47;4974195;28;20059;-82
2023/11/30 07:49:48;;;;;;;26.90;11.23;;;-2.30;99.90;;;-4.10;100.00;99873.03;5001640;28;20412;-81
2023/11/30 07:52:14;;;;;;;27.27;11.30;;;-2.30;99.90;;;-4.15;100.00;99880.75;4989846;28;20029;-84
2023/11/30 07:57:32;;;;;;;20.50;9.23;;;-2.40;99.90;;;-4.24;99.79;99880.78;4959274;28;20037;-83
2023/11/30 07:59:57;;;;;;;21.92;10.00;;;-2.40;99.90;;;-4.27;99.87;99880.78;4927848;28;20053;-81
2023/11/30 08:02:23;;;;;;;20.23;9.15;;;-2.40;99.90;;;-4.27;98.67;99880.78;4942233;28;20113;-83
2023/11/30 08:04:49;;;;;;;22.52;8.82;;;-2.40;99.90;;;-4.30;98.71;99888.47;4924634;28;20165;-81
2023/11/30 08:07:22;;;;;;;18.48;8.00;;;-2.50;99.90;;;-4.33;98.39;99889.34;4910185;28;20034;-83
2023/11/30 08:09:48;;;;;;;19.75;9.05;;;-2.50;99.90;;;-4.30;98.34;99893.63;4950018;28;20034;-81
2023/11/30 08:12:13;;;;;;;24.25;8.68;;;-2.50;99.90;;;-4.33;98.13;99887.63;4937198;28;20070;-84
2023/11/30 08:14:39;;;;;;;22.23;9.80;;;;;;;-4.28;98.01;99892.75;4991012;28;20125;-81
2023/11/30 08:17:05;;;;;;;22.38;9.65;;;-2.50;99.90;;;-4.27;97.95;99894.50;4960501;28;20103;-82
2023/11/30 08:19:32;;;;;;;17.17;8.82;;;-2.50;99.90;;;-4.28;97.82;99886.78;4944017;28;20040;-81
2023/11/30 08:22:06;;;;;;;21.27;10.18;;;-2.50;99.90;;;-4.25;97.54;99891.94;4963046;28;20087;-81
2023/11/30 08:24:32;;;;;;;22.15;10.20;;;-2.40;99.90;;;-4.24;97.23;99885.91;4961336;28;20038;-83
2023/11/30 08:27:06;;;;;;;17.48;9.00;;;-2.40;99.90;;;-4.24;96.69;99891.91;4924814;28;20041;-81
2023/11/30 08:29:36;;;;;;;23.17;10.50;;;-2.40;99.90;;;-4.23;96.17;99885.03;4951569;28;20079;-83
2023/11/30 08:34:49;;;;;;;22.25;9.10;;;-2.40;99.90;;;-4.24;95.65;99888.50;4900769;28;21191;-82
2023/11/30 08:37:15;;;;;;;22.23;9.65;;;;;;;-4.21;95.08;99901.31;4879919;28;20049;-83
2023/11/30 08:39:43;;;;;;;26.40;10.77;;;-2.40;99.90;;;-4.21;95.27;99907.34;4940330;28;20832;-81
2023/11/30 08:42:09;;;;;;;22.05;9.68;;;-2.40;99.90;;;-4.19;95.00;99904.75;4902477;28;20701;-82
2023/11/30 08:44:41;;;;;;;23.58;10.23;;;;;;;-4.18;94.63;99909.06;4917886;28;20158;-84
2023/11/30 08:47:07;;;;;;;23.75;9.98;;;-2.40;99.90;;;-4.17;94.07;99908.19;4931834;28;20529;-82
2023/11/30 08:49:35;;;;;;;21.65;10.32;;;-2.40;99.90;;;-4.19;94.04;99899.63;4938033;28;20045;-81
2023/11/30 08:52:01;;;;;;;21.10;9.45;;;-2.40;99.90;;;-4.22;93.81;99902.19;4938806;28;20129;-82
2023/11/30 08:54:29;;;;;;;23.60;10.60;;;-2.40;99.90;;;-4.16;93.85;99899.63;4917575;28;20042;-84
2023/11/30 08:56:59;;;;;;;23.25;10.20;;;;;;;-4.17;93.50;99903.94;4912151;28;20069;-81
2023/11/30 08:59:25;;;;;;;22.83;9.55;;;-2.40;99.90;;;-4.17;93.80;99890.19;4910744;28;20047;-83
2023/11/30 09:01:50;;;;;;;22.75;10.80;;;-2.30;99.90;;;-4.16;93.34;99899.63;4935657;28;20039;-82
2023/11/30 09:04:27;;;;;;;24.17;12.95;;;-2.30;99.90;;;-4.10;93.71;99894.50;4968676;28;20041;-81
2023/11/30 09:06:56;;;;;;;34.85;19.88;;;-2.30;99.90;;;-4.07;93.25;99899.63;4950708;28;20034;-83
2023/11/30 09:09:33;;;;;;;;;;;;;;;;;;;;;
2023/11/30 09:11:59;;;;;;;25.55;11.85;;;-2.20;99.90;;;-3.97;93.20;99905.63;4976680;28;20024;-83
2023/11/30 09:14:27;;;;;;;28.13;12.95;;;-2.20;99.90;;;-3.95;93.46;99902.19;4984904;28;20393;-81
2023/11/30 09:16:59;;;;;;;24.30;11.27;;;-2.20;99.90;;;-3.90;92.99;99903.91;5016846;28;20433;-81
2023/11/30 09:19:26;;;;;;;26.17;13.90;;;;;;;-3.86;93.14;99909.03;5024186;28;20156;-83
2023/11/30 09:21:51;;;;;;;22.13;12.27;;;-2.10;99.90;;;-3.82;92.60;99907.31;5045678;28;20073;-83
2023/11/30 09:24:21;;;;;;;22.35;10.90;;;-2.00;99.90;;;-3.79;92.20;99909.91;5035787;28;20044;-82
2023/11/30 09:26:56;;;;;;;25.90;13.35;;;-2.00;99.90;;;-3.76;92.73;99913.34;5012562;28;20047;-82
2023/11/30 09:29:22;;;;;;;29.83;14.98;;;-2.00;99.90;;;-3.76;92.09;99912.44;4994409;28;20720;-84
2023/11/30 09:31:57;;;;;;;27.98;13.32;;;;;;;-3.74;92.00;99914.19;4981031;28;20032;-81
2023/11/30 09:34:26;;;;;;;34.80;16.50;;;-2.00;99.90;;;-3.69;91.88;99921.00;5030589;28;20044;-83
2023/11/30 09:37:13;;;;;;;39.30;18.73;;;-1.90;99.90;;;-3.70;92.24;99917.59;5012202;28;20047;-82
2023/11/30 09:39:43;;;;;;;51.30;22.75;;;-1.90;99.90;;;-3.64;91.77;99920.16;4992333;28;20050;-83
2023/11/30 09:42:18;;;;;;;30.38;13.93;;;-1.90;99.90;;;-3.62;91.83;99913.28;5025856;28;20500;-83
2023/11/30 09:44:50;;;;;;;29.27;13.07;;;-1.90;99.90;;;-3.63;91.99;99916.72;5027192;28;20060;-84
2023/11/30 09:47:22;;;;;;;22.55;9.68;;;-1.80;99.90;;;-3.63;91.02;99911.56;5049474;28;20037;-81
2023/11/30 09:49:48;;;;;;;21.60;10.02;;;-1.80;99.90;;;-3.62;91.36;99915.03;5005762;28;20508;-81
2023/11/30 09:52:31;;;;;;;18.38;9.35;;;-1.80;99.90;;;-3.63;90.72;99903.00;5005981;28;20606;-83
2023/11/30 09:55:10;;;;;;;23.33;12.38;;;-1.80;99.90;;;-3.58;91.16;99909.84;5014439;28;20060;-84
2023/11/30 09:57:49;;;;;;;27.90;14.40;;;-1.80;99.90;;;-3.55;91.11;99909.84;4995300;28;20041;-83
2023/11/30 10:00:16;;;;;;;29.25;15.43;;;-1.80;99.90;;;-3.52;90.58;99901.25;4993046;28;20049;-81
2023/11/30 10:02:56;;;;;;;25.73;12.75;;;-1.70;99.90;;;-3.48;91.16;99904.69;5011219;28;20116;-81
2023/11/30 10:05:31;;;;;;;24.05;11.93;;;-1.70;99.90;;;-3.47;90.92;99907.25;5010909;28;20056;-84
2023/11/30 10:08:01;;;;;;;25.58;11.63;;;-1.70;99.90;;;-3.45;90.71;99902.13;5026968;28;20037;-82
2023/11/30 10:10:33;;;;;;;24.05;12.02;;;-1.70;99.90;;;-3.40;90.72;99906.38;5015824;28;20128;-81
2023/11/30 10:12:59;;;;;;;26.30;13.18;;;-1.70;99.90;;;-3.42;91.34;99904.66;4985275;28;20056;-82
2023/11/30 10:15:38;;;;;;;28.45;13.23;;;-1.60;99.90;;;-3.38;90.90;99893.50;5017988;28;20036;-83
2023/11/30 10:18:05;;;;;;;20.27;10.35;;;;;;;-3.42;91.18;99897.78;4986385;28;20060;-82
2023/11/30 10:20:41;;;;;;;29.05;12.52;;;-1.70;99.90;;;-3.40;91.63;99900.38;5060216;28;20149;-83
2023/11/30 10:23:18;;;;;;;;;;;-1.60;99.90;;;-3.47;90.92;99899.53;5004166;28;20037;-81
2023/11/30 10:25:47;;;;;;;21.00;10.45;;;-1.70;99.90;;;-3.48;90.86;99894.38;5016053;28;19955;-82
2023/11/30 10:28:16;;;;;;;21.85;10.23;;;;;;;-3.60;91.62;99893.56;5037924;28;20028;-81